Time;durP1;ratioP1;P1;durP2;ratioP2;P2;SDS_P1;SDS_P2;PMS_P1;PMS_P2;Temp;Humidity;BMP_temperature;BMP_pressure;BME280_temperature;BME280_humidity;BME280_pressure;Samples;Min_cycle;Max_cycle;Signal;HPM_P1;HPM_P2
2023/01/05 00:01:36;;;;;;;54.28;5.05;;;;;;;9.89;100.00;101655.69;5034440;28;20048;-68
2023/01/05 00:04:04;;;;;;;49.30;5.05;;;;;;;9.94;100.00;101647.06;5034427;28;20029;-67
2023/01/05 00:06:29;;;;;;;43.85;4.97;;;;;;;10.00;100.00;101662.53;5037766;28;20025;-67
2023/01/05 00:08:55;;;;;;;47.92;5.78;;;;;;;10.04;100.00;101664.22;5034823;28;20025;-68
2023/01/05 00:22:29;;;;;;;47.42;5.20;;;;;;;9.96;100.00;101651.38;5034982;28;20044;-68
2023/01/05 00:24:54;;;;;;;59.17;5.03;;;;;;;9.96;100.00;101650.50;5036199;28;20033;-68
2023/01/05 00:27:19;;;;;;;44.75;4.55;;;;;;;9.90;100.00;101653.97;5035188;28;20112;-67
2023/01/05 00:29:45;;;;;;;51.33;5.53;;;;;;;9.88;100.00;101666.97;5043218;28;20480;-68
2023/01/05 00:32:10;;;;;;;49.88;5.75;;;;;;;9.84;100.00;101659.19;5052841;28;20029;-68
2023/01/05 00:34:35;;;;;;;52.25;4.85;;;;;;;9.77;100.00;101673.94;5039518;28;20030;-68
2023/01/05 00:37:01;;;;;;;44.38;5.28;;;;;;;9.74;100.00;101663.59;5033009;28;20049;-67
2023/01/05 00:39:26;;;;;;;48.15;4.70;;;;;;;9.76;100.00;101668.75;5035194;28;20028;-67
2023/01/05 00:41:51;;;;;;;54.63;5.63;;;;;;;9.77;100.00;101665.28;5034778;28;20029;-68
2023/01/05 00:44:17;;;;;;;59.25;6.43;;;;;;;9.76;100.00;101661.84;5049323;28;20116;-67
2023/01/05 00:46:42;;;;;;;48.65;5.18;;;;;;;9.79;100.00;101671.34;5041241;28;20025;-68
2023/01/05 00:49:07;;;;;;;47.95;4.55;;;;;;;9.74;100.00;101666.19;5035706;28;20032;-68
2023/01/05 00:51:32;;;;;;;55.60;5.05;;;;;;;9.68;100.00;101666.25;5034983;28;20518;-67
2023/01/05 00:53:58;;;;;;;46.95;5.03;;;;;;;9.67;100.00;101663.66;5034030;28;20029;-68
2023/01/05 00:56:23;;;;;;;55.20;4.78;;;;;;;9.65;100.00;101668.84;5034877;28;20037;-68
2023/01/05 00:58:53;;;;;;;54.88;5.18;;;;;;;9.63;100.00;101656.75;5034956;28;20021;-68
2023/01/05 01:01:18;;;;;;;59.53;5.85;;;;;;;9.49;100.00;101652.53;5040350;28;20022;-68
2023/01/05 01:03:43;;;;;;;57.08;5.80;;;;;;;9.43;100.00;101657.75;5034715;28;20380;-67
2023/01/05 01:06:09;;;;;;;55.50;4.78;;;;;;;9.37;100.00;101665.56;5031355;28;20491;-68
2023/01/05 01:08:34;;;;;;;47.65;4.65;;;;;;;9.32;100.00;101662.13;5030560;28;20168;-67
2023/01/05 01:11:07;;;;;;;46.55;5.32;;;;;;;9.24;100.00;101671.66;5035459;28;20034;-68
2023/01/05 01:13:33;;;;;;;48.35;6.07;;;;;;;9.18;100.00;101674.28;5035058;28;20464;-67
2023/01/05 01:16:05;;;;;;;52.83;5.22;;;;;;;9.12;100.00;101676.91;5040491;28;20036;-67
2023/01/05 01:18:31;;;;;;;56.13;5.13;;;;;;;9.06;100.00;101670.03;5032602;28;20411;-68
2023/01/05 01:20:56;;;;;;;58.53;5.43;;;;;;;9.02;100.00;101670.03;5035128;28;20514;-68
2023/01/05 01:23:21;;;;;;;57.50;5.05;;;;;;;8.98;100.00;101670.94;5034206;28;20030;-68
2023/01/05 01:25:47;;;;;;;57.45;5.40;;;;;;;8.95;100.00;101678.69;5034563;28;20047;-68
2023/01/05 01:28:12;;;;;;;53.63;6.05;;;;;;;8.91;100.00;101682.16;5034543;28;20061;-68
2023/01/05 01:30:38;;;;;;;49.10;5.85;;;;;;;8.87;100.00;101689.03;5034628;28;20029;-67
2023/01/05 01:33:04;;;;;;;45.72;5.13;;;;;;;8.83;100.00;101696.81;5034751;28;20087;-68
2023/01/05 01:35:29;;;;;;;45.63;5.20;;;;;;;8.78;100.00;101689.09;5033481;28;20029;-67
2023/01/05 01:37:54;;;;;;;56.05;5.35;;;;;;;8.77;100.00;101694.25;5025500;28;20083;-67
2023/01/05 01:40:19;;;;;;;55.75;5.63;;;;;;;8.75;100.00;101695.97;5034065;28;20057;-68
2023/01/05 01:42:45;;;;;;;54.42;4.72;;;;;;;8.69;100.00;101695.13;5033752;28;20125;-67
2023/01/05 01:45:22;;;;;;;52.17;5.15;;;;;;;8.69;100.00;101705.47;5048126;28;20475;-67
2023/01/05 01:47:57;;;;;;;54.85;5.15;;;;;;;8.66;100.00;101704.63;5036083;28;20025;-67
2023/01/05 01:50:32;;;;;;;59.67;6.18;;;;;;;8.65;100.00;101721.00;5033179;28;20048;-68
2023/01/05 01:53:00;;;;;;;;;;;;;;;8.63;100.00;101723.59;5033208;28;20057;-67
2023/01/05 01:55:27;;;;;;;52.67;5.75;;;;;;;8.57;100.00;101723.59;5033586;28;19970;-67
2023/01/05 01:57:53;;;;;;;48.42;4.45;;;;;;;8.61;100.00;101732.19;5034292;28;20025;-68
2023/01/05 02:00:18;;;;;;;57.38;5.07;;;;;;;8.66;100.00;101728.75;5039634;28;20033;-67
2023/01/05 02:02:53;;;;;;;63.17;5.93;;;;;;;8.70;100.00;101727.88;5033034;28;20029;-68
2023/01/05 02:05:19;;;;;;;;;;;;;;;8.76;100.00;101741.66;5046665;28;20086;-68
2023/01/05 02:07:46;;;;;;;55.08;4.93;;;;;;;8.79;100.00;101742.50;5044567;28;20346;-68
2023/01/05 02:10:15;;;;;;;58.75;5.20;;;;;;;8.84;100.00;101733.03;5034078;28;20032;-68
2023/01/05 02:12:54;;;;;;;40.13;4.50;;;;;;;8.91;100.00;101737.31;5032052;28;20026;-68
2023/01/05 02:15:31;;;;;;;54.92;5.53;;;;;;;8.95;100.00;101735.56;5039737;28;20037;-68
2023/01/05 02:18:09;;;;;;;43.55;5.00;;;;;;;9.01;100.00;101739.00;5032055;28;20556;-68
2023/01/05 02:21:11;;;;;;;49.58;6.43;;;;;;;9.05;100.00;101737.28;5032928;28;20061;-67
2023/01/05 02:24:10;;;;;;;57.78;6.93;;;;;;;9.06;100.00;101737.28;5034521;28;20025;-67
2023/01/05 02:26:38;;;;;;;53.10;5.25;;;;;;;9.08;100.00;101735.53;5033201;28;20025;-67
2023/01/05 02:29:26;;;;;;;56.08;5.55;;;;;;;9.13;100.00;101732.06;5032266;28;20072;-67
2023/01/05 02:32:18;;;;;;;63.20;6.05;;;;;;;9.15;100.00;101736.34;5032696;28;20483;-67
2023/01/05 02:34:56;;;;;;;49.30;5.35;;;;;;;9.18;100.00;101736.38;5032001;28;20035;-67
2023/01/05 02:37:36;;;;;;;56.65;5.05;;;;;;;9.19;100.00;101732.06;5027922;28;20121;-68
2023/01/05 02:40:14;;;;;;;54.13;5.75;;;;;;;9.20;100.00;101729.47;5033358;28;20043;-68
2023/01/05 02:42:41;;;;;;;62.92;5.32;;;;;;;9.23;100.00;101739.78;5032884;28;20056;-67
2023/01/05 02:45:07;;;;;;;43.17;5.03;;;;;;;9.26;100.00;101734.63;5033768;28;20034;-67
2023/01/05 02:47:42;;;;;;;58.55;4.80;;;;;;;9.30;100.00;101733.72;5032536;28;20045;-67
2023/01/05 02:50:23;;;;;;;53.53;5.05;;;;;;;9.33;100.00;101743.22;5032190;28;20053;-68
2023/01/05 02:53:10;;;;;;;52.75;5.07;;;;;;;9.36;100.00;101743.19;5032578;28;20033;-68
2023/01/05 02:55:44;;;;;;;54.72;5.63;;;;;;;9.39;100.00;101732.81;5032717;28;20029;-67
2023/01/05 02:58:16;;;;;;;46.10;4.57;;;;;;;9.42;100.00;101732.78;5033051;28;20026;-67
2023/01/05 03:00:51;;;;;;;63.22;5.65;;;;;;;9.45;100.00;101740.56;5032631;28;20806;-68
2023/01/05 03:03:39;;;;;;;54.55;5.50;;;;;;;9.49;100.00;101740.53;5032057;28;20032;-67
2023/01/05 03:06:15;;;;;;;46.53;4.82;;;;;;;9.53;100.00;101743.97;5032843;28;20087;-68
2023/01/05 03:08:50;;;;;;;57.33;5.30;;;;;;;9.57;100.00;101747.41;5042151;28;20081;-68
2023/01/05 03:14:05;;;;;;;64.60;6.43;;;;;;;9.63;100.00;101745.63;5031522;28;20090;-67
2023/01/05 03:16:34;;;;;;;56.08;4.95;;;;;;;9.68;100.00;101745.63;5046727;28;20279;-67
2023/01/05 03:35:42;;;;;;;55.50;5.63;;;;;;;9.79;100.00;101736.06;5032614;28;20087;-67
2023/01/05 03:38:26;;;;;;;65.47;6.30;;;;;;;9.81;100.00;101745.56;5030654;28;20048;-67
2023/01/05 03:40:56;;;;;;;53.40;5.70;;;;;;;9.81;100.00;101749.88;5032087;28;20113;-68
2023/01/05 03:43:21;;;;;;;55.60;5.47;;;;;;;9.81;100.00;101742.09;5032829;28;20064;-68
2023/01/05 03:45:55;;;;;;;50.53;5.65;;;;;;;9.84;100.00;101742.06;5032847;28;20093;-67
2023/01/05 03:48:23;;;;;;;58.83;5.95;;;;;;;9.82;100.00;101742.09;5029098;28;20232;-67
2023/01/05 03:50:48;;;;;;;55.35;5.57;;;;;;;9.81;100.00;101734.34;5037656;28;20045;-67
2023/01/05 03:53:13;;;;;;;51.20;4.90;;;;;;;9.80;100.00;101743.81;5033847;28;20041;-68
2023/01/05 03:55:39;;;;;;;50.65;6.20;;;;;;;9.81;100.00;101742.97;5028919;28;20036;-67
2023/01/05 03:58:04;;;;;;;50.40;5.28;;;;;;;9.83;100.00;101738.59;5033618;28;20491;-67
2023/01/05 04:00:31;;;;;;;49.42;5.03;;;;;;;9.85;100.00;101741.19;5043305;28;20070;-67
2023/01/05 04:02:56;;;;;;;46.75;5.55;;;;;;;9.88;100.00;101746.38;5031293;28;20033;-67
2023/01/05 04:05:21;;;;;;;44.15;4.50;;;;;;;9.88;100.00;101751.56;5031079;28;20052;-68
2023/01/05 04:07:47;;;;;;;55.97;4.47;;;;;;;9.89;100.00;101742.91;5033334;28;20083;-68
2023/01/05 04:10:12;;;;;;;51.22;5.72;;;;;;;9.89;100.00;101748.94;5027228;28;20228;-67
2023/01/05 04:12:38;;;;;;;65.38;5.90;;;;;;;9.89;100.00;101748.94;5034259;28;20492;-67
2023/01/05 04:15:04;;;;;;;53.97;5.30;;;;;;;9.90;100.00;101736.84;5042923;28;20035;-67
2023/01/05 04:17:30;;;;;;;43.03;6.68;;;;;;;9.89;100.00;101743.75;5033012;28;20029;-68
2023/01/05 04:19:55;;;;;;;47.65;4.90;;;;;;;9.89;100.00;101748.94;5031564;28;20400;-68
2023/01/05 04:22:20;;;;;;;53.13;5.55;;;;;;;9.93;100.00;101760.16;5043836;28;20163;-67
2023/01/05 04:24:46;;;;;;;50.00;5.10;;;;;;;9.92;100.00;101753.25;5024431;28;20105;-68
2023/01/05 04:27:11;;;;;;;49.47;5.18;;;;;;;9.95;100.00;101761.00;5027772;28;20093;-67
2023/01/05 04:29:36;;;;;;;54.05;5.10;;;;;;;9.95;100.00;101761.00;5022482;28;20068;-71
2023/01/05 04:32:02;;;;;;;60.78;5.25;;;;;;;9.95;100.00;101755.81;5042426;28;20026;-71
2023/01/05 04:34:27;;;;;;;46.22;4.93;;;;;;;9.98;100.00;101750.59;5033360;28;20029;-71
2023/01/05 04:36:53;;;;;;;48.40;4.75;;;;;;;9.99;100.00;101765.28;5028839;28;20391;-71
2023/01/05 04:39:18;;;;;;;57.45;4.80;;;;;;;10.00;100.00;101764.41;5037601;28;20029;-71
2023/01/05 04:41:43;;;;;;;55.85;5.75;;;;;;;9.98;100.00;101750.59;5028572;28;20029;-71
2023/01/05 04:44:09;;;;;;;57.83;5.43;;;;;;;10.02;100.00;101764.41;5023666;28;20022;-70
2023/01/05 04:46:34;;;;;;;54.83;6.22;;;;;;;10.05;100.00;101760.06;5032448;28;20116;-69
2023/01/05 04:48:59;;;;;;;49.47;5.60;;;;;;;10.01;100.00;101758.38;5036299;28;20029;-71
2023/01/05 04:51:24;;;;;;;54.58;5.80;;;;;;;10.01;100.00;101771.31;5037167;28;20080;-70
2023/01/05 04:53:50;;;;;;;56.50;5.70;;;;;;;10.01;100.00;101758.38;5031121;28;20040;-71
2023/01/05 04:56:16;;;;;;;51.88;4.72;;;;;;;10.04;100.00;101768.69;5030784;28;20480;-71
2023/01/05 04:58:41;;;;;;;47.20;5.88;;;;;;;10.03;100.00;101766.97;5045895;28;20025;-68
2023/01/05 05:01:07;;;;;;;47.33;5.03;;;;;;;10.04;100.00;101768.69;5037038;28;20032;-68
2023/01/05 05:03:33;;;;;;;57.03;6.13;;;;;;;10.05;100.00;101769.56;5036284;28;20036;-68
2023/01/05 05:05:58;;;;;;;46.85;5.05;;;;;;;10.06;100.00;101766.97;5034165;28;20084;-67
2023/01/05 05:08:24;;;;;;;43.13;5.28;;;;;;;10.05;100.00;101773.00;5025880;28;20029;-68
2023/01/05 05:10:49;;;;;;;51.63;5.07;;;;;;;10.06;100.00;101777.31;5036562;28;20029;-68
2023/01/05 05:13:14;;;;;;;42.97;5.10;;;;;;;10.06;100.00;101772.13;5047309;28;20038;-67
2023/01/05 05:15:40;;;;;;;54.80;5.43;;;;;;;10.06;100.00;101776.47;5036333;28;20137;-67
2023/01/05 05:18:05;;;;;;;54.95;5.68;;;;;;;10.05;100.00;101778.19;5048605;28;20079;-68
2023/01/05 05:20:31;;;;;;;55.25;4.97;;;;;;;10.04;100.00;101786.81;5031986;28;20021;-67
2023/01/05 05:22:56;;;;;;;48.17;4.97;;;;;;;10.05;100.00;101798.91;5029516;28;20061;-67
2023/01/05 05:25:21;;;;;;;46.72;4.88;;;;;;;10.05;100.00;101793.72;5038459;28;20041;-67
2023/01/05 05:27:47;;;;;;;56.58;4.60;;;;;;;10.07;100.00;101794.59;5053340;28;20198;-67
2023/01/05 05:30:12;;;;;;;47.47;4.65;;;;;;;10.07;100.00;101798.91;5035686;28;20037;-67
2023/01/05 05:32:38;;;;;;;51.35;4.97;;;;;;;10.07;100.00;101796.31;5044859;28;20440;-67
2023/01/05 05:35:03;;;;;;;37.28;4.57;;;;;;;10.08;100.00;101796.31;5034945;28;20643;-68
2023/01/05 05:37:29;;;;;;;56.20;4.50;;;;;;;10.07;100.00;101797.19;5035874;28;20136;-67
2023/01/05 05:39:54;;;;;;;53.80;5.45;;;;;;;10.06;100.00;101792.88;5038639;28;20041;-68
2023/01/05 05:42:19;;;;;;;60.25;5.35;;;;;;;10.06;100.00;101798.03;5047129;28;20544;-67
2023/01/05 05:44:45;;;;;;;44.53;4.70;;;;;;;10.05;100.00;101804.09;5035972;28;20025;-68
2023/01/05 05:47:10;;;;;;;51.92;5.15;;;;;;;10.05;100.00;101816.19;5044431;28;20032;-68
2023/01/05 05:49:35;;;;;;;43.95;4.45;;;;;;;10.09;100.00;101803.22;5035805;28;20462;-67
2023/01/05 05:52:01;;;;;;;37.45;4.55;;;;;;;10.08;100.00;101808.41;5025844;28;20029;-68
2023/01/05 05:54:26;;;;;;;46.25;5.13;;;;;;;10.10;100.00;101809.25;5038706;28;20411;-68
2023/01/05 05:56:51;;;;;;;45.25;4.88;;;;;;;10.10;100.00;101820.47;5042705;28;20090;-68
2023/01/05 05:59:16;;;;;;;40.35;4.75;;;;;;;10.12;100.00;101823.03;5033404;28;20028;-68
2023/01/05 06:01:42;;;;;;;40.67;5.32;;;;;;;10.13;100.00;101825.63;5033681;28;20474;-68
2023/01/05 06:04:07;;;;;;;41.63;5.15;;;;;;;10.14;100.00;101832.53;5050780;28;20502;-67
2023/01/05 06:06:32;;;;;;;47.88;5.47;;;;;;;10.14;100.00;101840.31;5030408;28;20499;-68
2023/01/05 06:08:58;;;;;;;53.83;5.22;;;;;;;10.16;100.00;101842.91;5025882;28;20144;-67
2023/01/05 06:11:23;;;;;;;58.75;6.20;;;;;;;10.19;100.00;101850.66;5043888;28;20037;-67
2023/01/05 06:13:48;;;;;;;48.00;6.55;;;;;;;10.15;100.00;101834.25;5038963;28;20104;-67
2023/01/05 06:16:14;;;;;;;45.60;5.13;;;;;;;10.14;100.00;101839.44;5036341;28;20027;-67
2023/01/05 06:18:39;;;;;;;52.42;5.55;;;;;;;10.14;100.00;101842.03;5037847;28;20025;-68
2023/01/05 06:21:05;;;;;;;48.05;5.43;;;;;;;10.14;100.00;101848.09;5031371;28;20033;-68
2023/01/05 06:23:31;;;;;;;54.90;6.40;;;;;;;10.13;100.00;101854.13;5043759;28;20506;-67
2023/01/05 06:25:56;;;;;;;43.28;4.47;;;;;;;10.14;100.00;101857.59;5043661;28;20142;-68
2023/01/05 06:28:21;;;;;;;50.78;5.18;;;;;;;10.08;100.00;101867.97;5037499;28;20087;-68
2023/01/05 06:30:47;;;;;;;42.20;5.97;;;;;;;10.03;100.00;101874.94;5034879;28;20071;-68
2023/01/05 06:33:12;;;;;;;40.45;4.95;;;;;;;10.01;100.00;101884.44;5040967;28;20131;-67
2023/01/05 06:35:38;;;;;;;50.83;5.60;;;;;;;9.97;100.00;101877.50;5032554;28;20403;-67
2023/01/05 06:38:03;;;;;;;53.50;5.40;;;;;;;9.95;100.00;101882.72;5038146;28;20087;-68
2023/01/05 06:40:28;;;;;;;44.72;5.32;;;;;;;9.92;100.00;101880.13;5030508;28;20025;-68
2023/01/05 06:42:54;;;;;;;48.85;4.70;;;;;;;9.91;100.00;101873.22;5027708;28;20029;-67
2023/01/05 06:45:19;;;;;;;42.00;5.85;;;;;;;9.93;100.00;101884.44;5026068;28;20105;-68
2023/01/05 06:47:45;;;;;;;44.40;5.03;;;;;;;9.90;100.00;101879.28;5027903;28;20033;-68
2023/01/05 06:50:10;;;;;;;48.47;5.07;;;;;;;9.85;100.00;101887.06;5039559;28;20375;-68
2023/01/05 06:52:38;;;;;;;48.95;5.47;;;;;;;9.82;100.00;101894.88;5042528;28;20037;-68
2023/01/05 06:55:06;;;;;;;40.00;5.05;;;;;;;9.81;100.00;101895.72;5031466;28;20036;-68
2023/01/05 06:57:32;;;;;;;52.13;5.93;;;;;;;9.82;100.00;101901.78;5036299;28;20037;-68
2023/01/05 06:59:57;;;;;;;62.83;6.90;;;;;;;9.81;100.00;101897.47;5020393;28;20092;-68
2023/01/05 07:02:22;;;;;;;42.10;5.07;;;;;;;9.82;100.00;101896.59;5030197;28;20124;-68
2023/01/05 07:04:47;;;;;;;57.83;5.57;;;;;;;9.83;100.00;101904.34;5024991;28;20025;-68
2023/01/05 07:07:14;;;;;;;40.22;4.60;;;;;;;9.83;100.00;101896.56;5028007;28;20025;-68
2023/01/05 07:09:40;;;;;;;53.50;5.88;;;;;;;9.83;100.00;101896.56;5034913;28;20029;-68
2023/01/05 07:12:05;;;;;;;49.75;5.38;;;;;;;9.83;100.00;101904.34;5038507;28;20037;-68
2023/01/05 07:14:31;;;;;;;38.58;4.50;;;;;;;9.85;100.00;101894.84;5029455;28;20025;-68
2023/01/05 07:16:56;;;;;;;54.40;6.47;;;;;;;9.84;100.00;101894.84;5027593;28;20025;-68
2023/01/05 07:19:21;;;;;;;48.05;4.43;;;;;;;9.85;100.00;101901.75;5034748;28;20028;-68
2023/01/05 07:21:47;;;;;;;50.90;5.50;;;;;;;9.85;100.00;101906.94;5035214;28;20029;-68
2023/01/05 07:24:12;;;;;;;54.42;6.55;;;;;;;9.84;100.00;101900.03;5031381;28;20021;-68
2023/01/05 07:26:37;;;;;;;49.03;5.72;;;;;;;9.82;100.00;101913.00;5028708;28;20510;-68
2023/01/05 07:29:03;;;;;;;46.40;5.20;;;;;;;9.80;100.00;101909.53;5029364;28;20052;-68
2023/01/05 07:31:28;;;;;;;43.97;5.72;;;;;;;9.78;100.00;101913.84;5046323;28;20048;-68
2023/01/05 07:33:53;;;;;;;53.28;5.10;;;;;;;9.79;100.00;101928.53;5032330;28;20029;-68
2023/01/05 07:36:19;;;;;;;49.95;5.10;;;;;;;9.81;100.00;101928.53;5029144;28;20069;-68
2023/01/05 07:38:44;;;;;;;42.35;5.05;;;;;;;9.83;100.00;101917.28;5038613;28;20056;-68
2023/01/05 07:41:09;;;;;;;53.53;5.53;;;;;;;9.84;100.00;101928.50;5032942;28;20492;-68
2023/01/05 07:43:35;;;;;;;41.63;4.75;;;;;;;9.85;100.00;101932.81;5021244;28;20135;-68
2023/01/05 07:46:02;;;;;;;42.75;4.60;;;;;;;9.86;100.00;101929.38;5027756;28;20390;-68
2023/01/05 07:48:28;;;;;;;45.25;4.88;;;;;;;9.86;100.00;101929.38;5021796;28;20041;-67
2023/01/05 07:51:04;;;;;;;41.30;5.55;;;;;;;9.89;100.00;101937.16;5026715;28;20436;-68
2023/01/05 07:53:30;;;;;;;55.13;5.88;;;;;;;9.88;100.00;101938.88;5025585;28;20038;-68
2023/01/05 07:55:57;;;;;;;50.72;5.47;;;;;;;9.86;100.00;101935.41;5031090;28;20033;-68
2023/01/05 07:58:22;;;;;;;52.97;5.88;;;;;;;9.90;100.00;101946.59;5036573;28;20091;-68
2023/01/05 08:00:49;;;;;;;54.53;5.72;;;;;;;9.91;100.00;101941.44;5029187;28;20037;-68
2023/01/05 08:03:14;;;;;;;51.25;5.38;;;;;;;9.91;100.00;101948.34;5031934;28;20048;-68
2023/01/05 08:05:39;;;;;;;51.53;5.80;;;;;;;9.93;100.00;101950.94;5030896;28;20026;-68
2023/01/05 08:08:05;;;;;;;49.60;5.88;;;;;;;9.93;100.00;101948.34;5026463;28;20029;-68
2023/01/05 08:10:30;;;;;;;54.95;5.90;;;;;;;9.95;100.00;101951.78;5040090;28;20487;-68
2023/01/05 08:15:55;;;;;;;46.70;6.00;;;;;;;9.97;100.00;101955.22;5030935;28;20088;-68
2023/01/05 08:18:21;;;;;;;45.63;5.35;;;;;;;9.97;100.00;101961.25;5025533;28;20343;-68
2023/01/05 08:20:55;;;;;;;47.95;5.68;;;;;;;9.98;100.00;101955.22;5041304;28;20483;-68
2023/01/05 08:23:21;;;;;;;49.33;5.32;;;;;;;9.99;100.00;101967.31;5031567;28;20029;-68
2023/01/05 08:25:46;;;;;;;51.65;5.32;;;;;;;10.01;100.00;101962.13;5041377;28;20187;-68
2023/01/05 08:28:12;;;;;;;44.75;4.80;;;;;;;10.00;100.00;101965.59;5039156;28;20024;-68
2023/01/05 08:30:37;;;;;;;58.97;5.68;;;;;;;10.00;100.00;101971.63;5032880;28;20018;-68
2023/01/05 08:33:04;;;;;;;42.38;5.07;;;;;;;10.00;100.00;101973.34;5027449;28;20033;-68
2023/01/05 08:35:29;;;;;;;48.67;5.88;;;;;;;10.01;100.00;101975.94;5033385;28;20454;-68
2023/01/05 08:37:54;;;;;;;48.72;5.47;;;;;;;10.02;100.00;101979.41;5035128;28;20482;-68
2023/01/05 08:40:20;;;;;;;54.70;6.07;;;;;;;10.03;100.00;101974.19;5035378;28;20108;-68
2023/01/05 08:42:48;;;;;;;58.00;5.70;;;;;;;10.06;100.00;101991.47;5034220;28;20033;-68
2023/01/05 08:45:14;;;;;;;46.10;5.13;;;;;;;10.07;100.00;101985.41;5031817;28;20025;-67
2023/01/05 08:47:40;;;;;;;52.28;6.30;;;;;;;10.08;100.00;101988.00;5031699;28;20442;-68
2023/01/05 08:50:08;;;;;;;44.78;5.38;;;;;;;10.10;100.00;101988.00;5035109;28;20499;-68
2023/01/05 08:52:34;;;;;;;50.80;6.15;;;;;;;10.13;100.00;102001.81;5041025;28;20025;-68
2023/01/05 08:54:59;;;;;;;53.20;5.32;;;;;;;10.19;100.00;102001.81;5038593;28;20387;-67
2023/01/05 08:57:24;;;;;;;44.05;5.07;;;;;;;10.21;100.00;102007.88;5034654;28;20025;-68
2023/01/05 08:59:50;;;;;;;42.03;5.22;;;;;;;10.23;100.00;102016.50;5031961;28;20117;-68
2023/01/05 09:02:15;;;;;;;49.80;5.15;;;;;;;10.26;100.00;102019.06;5031507;28;20035;-68
2023/01/05 09:04:40;;;;;;;44.80;5.20;;;;;;;10.30;100.00;102020.75;5039484;28;20508;-68
2023/01/05 09:07:06;;;;;;;44.65;5.30;;;;;;;10.33;100.00;102026.81;5038036;28;20630;-68
2023/01/05 09:09:31;;;;;;;48.92;5.30;;;;;;;10.36;100.00;102032.88;5036007;28;20100;-68
2023/01/05 09:11:56;;;;;;;46.40;5.60;;;;;;;10.39;100.00;102031.97;5040487;28;20057;-68
2023/01/05 09:14:22;;;;;;;46.17;5.30;;;;;;;10.39;100.00;102039.75;5034560;28;20033;-68
2023/01/05 09:16:47;;;;;;;55.13;5.38;;;;;;;10.42;100.00;102052.72;5048628;28;20495;-69
2023/01/05 09:19:13;;;;;;;41.10;4.80;;;;;;;10.42;100.00;102034.56;5034784;28;20028;-68
2023/01/05 09:21:38;;;;;;;50.13;5.45;;;;;;;10.44;100.00;102040.63;5038781;28;20040;-68
2023/01/05 09:24:06;;;;;;;50.25;5.40;;;;;;;10.45;100.00;102044.91;5037049;28;20499;-69
2023/01/05 09:26:32;;;;;;;45.15;5.93;;;;;;;10.47;100.00;102040.59;5052718;28;20017;-69
2023/01/05 09:28:57;;;;;;;53.17;5.20;;;;;;;10.48;100.00;102047.50;5034106;28;20036;-68
2023/01/05 09:31:22;;;;;;;57.03;5.53;;;;;;;10.52;100.00;102049.19;5034945;28;20029;-69
2023/01/05 09:33:48;;;;;;;48.83;4.88;;;;;;;10.55;100.00;102059.56;5034865;28;20029;-68
2023/01/05 09:36:15;;;;;;;47.58;4.68;;;;;;;10.52;100.00;102062.16;5034782;28;20095;-69
2023/01/05 09:38:40;;;;;;;46.03;4.88;;;;;;;10.53;100.00;102063.88;5034669;28;20049;-69
2023/01/05 09:41:18;;;;;;;44.78;4.63;;;;;;;10.57;100.00;102060.44;5035250;28;20178;-68
2023/01/05 09:43:46;;;;;;;43.97;5.38;;;;;;;10.60;100.00;102055.22;5030660;28;20025;-68
2023/01/05 09:46:17;;;;;;;42.13;5.57;;;;;;;10.66;100.00;102057.78;5039103;28;20487;-68
2023/01/05 09:48:45;;;;;;;56.05;5.72;;;;;;;10.70;100.00;102067.28;5034581;28;20033;-68
2023/01/05 09:51:12;;;;;;;48.80;5.82;;;;;;;10.72;100.00;102060.34;5044164;28;20095;-69
2023/01/05 09:53:38;;;;;;;55.45;5.05;;;;;;;10.78;100.00;102072.44;5054223;28;20514;-69
2023/01/05 09:56:05;;;;;;;43.67;4.85;;;;;;;10.84;100.00;102065.50;5036967;28;20108;-68
2023/01/05 09:58:39;;;;;;;43.25;5.03;;;;;;;10.91;100.00;102076.69;5040544;28;20388;-68
2023/01/05 10:01:13;;;;;;;43.55;4.60;;;;;;;10.93;100.00;102068.00;5034174;28;20105;-68
2023/01/05 10:04:06;;;;;;;44.05;5.38;;;;;;;10.90;100.00;102075.84;5042724;28;20033;-68
2023/01/05 10:06:41;;;;;;;48.17;5.05;;;;;;;10.86;100.00;102087.06;5033197;28;20033;-68
2023/01/05 10:09:08;;;;;;;;;;;;;;;10.87;100.00;102077.56;5044522;28;20095;-68
2023/01/05 10:14:41;;;;;;;49.35;5.65;;;;;;;10.86;100.00;102078.44;5040455;28;20522;-69
2023/01/05 10:17:13;;;;;;;41.22;4.70;;;;;;;10.90;100.00;102090.53;5034688;28;20037;-68
2023/01/05 10:19:39;;;;;;;41.72;5.10;;;;;;;10.91;100.00;102090.53;5038981;28;20017;-68
2023/01/05 10:22:24;;;;;;;41.13;5.70;;;;;;;11.01;100.00;102086.13;5032462;28;20086;-68
2023/01/05 10:24:56;;;;;;;43.72;5.95;;;;;;;11.05;100.00;102091.28;5032666;28;20033;-68
2023/01/05 10:27:30;;;;;;;38.17;5.22;;;;;;;11.13;100.00;102098.16;5032830;28;20406;-68
2023/01/05 10:30:14;;;;;;;48.08;5.32;;;;;;;11.18;100.00;102096.44;5032575;28;20387;-69
2023/01/05 10:32:59;;;;;;;49.58;5.40;;;;;;;11.23;100.00;102097.25;5040325;28;20077;-68
2023/01/05 10:35:39;;;;;;;;;;;;;;;11.29;100.00;102108.47;5034115;28;20104;-69
2023/01/05 10:38:27;;;;;;;43.60;5.32;;;;;;;11.28;99.33;102090.28;5032728;28;20391;-70
2023/01/05 10:41:04;;;;;;;38.70;5.40;;;;;;;11.35;99.31;102092.84;5033063;28;20021;-68
2023/01/05 10:43:56;;;;;;;45.20;5.95;;;;;;;11.38;99.57;102097.16;5033654;28;20091;-68
2023/01/05 10:46:21;;;;;;;44.97;6.57;;;;;;;11.36;98.09;102101.50;5032785;28;20128;-68
2023/01/05 10:48:47;;;;;;;49.83;6.15;;;;;;;11.35;99.41;102094.56;5032768;28;20446;-69
2023/01/05 10:51:12;;;;;;;45.67;6.13;;;;;;;11.27;98.16;102099.81;5034069;28;20287;-69
2023/01/05 10:53:41;;;;;;;46.58;5.68;;;;;;;11.22;98.94;102087.75;5052124;28;20456;-69
2023/01/05 10:56:28;;;;;;;48.33;6.43;;;;;;;11.24;99.49;102092.06;5036385;28;20024;-68
2023/01/05 10:59:14;;;;;;;44.20;5.85;;;;;;;11.34;100.00;102098.03;5033826;28;20423;-69
2023/01/05 11:01:44;;;;;;;47.42;5.97;;;;;;;11.38;97.62;102094.56;5033783;28;20031;-69
2023/01/05 11:04:18;;;;;;;48.95;6.20;;;;;;;11.41;98.54;102086.75;5032250;28;20034;-68
2023/01/05 11:06:44;;;;;;;40.97;6.07;;;;;;;11.37;98.06;102100.63;5039154;28;20035;-68
2023/01/05 11:09:22;;;;;;;48.30;6.72;;;;;;;11.28;98.96;102098.94;5037311;28;20104;-69
2023/01/05 11:11:55;;;;;;;48.60;6.05;;;;;;;11.28;98.57;102111.94;5033722;28;20056;-68
2023/01/05 11:14:21;;;;;;;37.17;6.18;;;;;;;11.26;98.32;102110.22;5033195;28;20148;-68
2023/01/05 11:16:52;;;;;;;41.22;5.93;;;;;;;11.13;98.36;102101.63;5032360;28;20068;-68
2023/01/05 11:19:21;;;;;;;40.72;6.00;;;;;;;11.01;99.20;102107.75;5032966;28;20033;-68
2023/01/05 11:21:47;;;;;;;40.83;6.43;;;;;;;10.96;99.97;102103.47;5041518;28;20434;-68
2023/01/05 11:24:35;;;;;;;44.17;6.30;;;;;;;10.95;100.00;102100.00;5032479;28;20487;-68
2023/01/05 11:27:20;;;;;;;46.08;6.75;;;;;;;10.99;100.00;102104.31;5029179;28;20040;-68
2023/01/05 11:30:14;;;;;;;51.67;6.90;;;;;;;11.06;100.00;102103.41;5032283;28;20065;-68
2023/01/05 11:32:44;;;;;;;43.70;5.68;;;;;;;11.16;100.00;102098.16;5031894;28;20029;-68
2023/01/05 11:35:29;;;;;;;38.85;5.60;;;;;;;11.29;100.00;102102.41;5029488;28;20029;-68
2023/01/05 11:37:56;;;;;;;42.60;6.50;;;;;;;11.35;99.96;102090.25;5021335;28;20451;-68
2023/01/05 11:40:26;;;;;;;39.40;5.63;;;;;;;11.41;98.74;102084.16;5032269;28;20487;-68
2023/01/05 11:42:51;;;;;;;39.42;5.10;;;;;;;11.53;99.37;102081.47;5032702;28;20025;-69
2023/01/05 11:45:23;;;;;;;38.00;5.60;;;;;;;11.62;99.39;102093.50;5030431;28;20107;-68
2023/01/05 11:48:02;;;;;;;37.40;5.32;;;;;;;11.62;99.12;102091.78;5041270;28;20025;-69
2023/01/05 11:50:31;;;;;;;46.15;5.80;;;;;;;11.68;99.00;102086.53;5044618;28;20515;-74
2023/01/05 11:52:59;;;;;;;41.95;5.97;;;;;;;11.73;98.21;102079.59;5031592;28;20030;-73
2023/01/05 11:55:28;;;;;;;48.20;6.10;;;;;;;11.70;97.44;102086.53;5029632;28;20111;-73
2023/01/05 11:57:56;;;;;;;49.25;6.63;;;;;;;11.65;97.62;102086.56;5036119;28;20025;-72